Arklow Fame — EIXN — position and weather

sailwx.info

Track history (hours):
 
Tides and Currents Weather Stations Pressure Air Temp Water Temp Dewpoint Dewpoint Depression Visibility Wind Speed Wind Dir Waves Ship Positions

Arklow Fame

Last reported at 2017-Oct-20 16:25 UTC. Time now 2017-Oct-23 02:46 UTC.
Position N 49°46' W 003°28'.

Length 90 m; draft 5.2 m.

Type: Cargo ship. MMSI: 250000817.

Date/timePositionNaut miles runAvg speedWind from/ knotsBaromVisibWave heightAir tempDewpointWater temp
2017-Oct-20 16:25N 49°46' W 003°28'4 8.3
2017-Oct-20 15:59N 49°48' W 003°23'4 8.8
2017-Oct-20 15:30N 49°50' W 003°18'5 9.6
2017-Oct-20 15:00N 49°53' W 003°11'510.6
2017-Oct-20 14:30N 49°55' W 003°04'108 7.1
2017-Oct-19 23:28N 50°27' W 000°24'4 8.1
2017-Oct-19 23:00N 50°29' W 000°19'4 7.2
2017-Oct-19 22:30N 50°30' W 000°13'3 6.6
2017-Oct-19 22:00N 50°31' W 000°08'3 6.5
2017-Oct-19 21:30N 50°31' W 000°03'3 6.3
2017-Oct-19 20:58N 50°32' E 000°02'3 6.6
2017-Oct-19 20:30N 50°33' E 000°07'4 7.1
2017-Oct-19 20:00N 50°34' E 000°12'4 7.9
2017-Oct-19 19:30N 50°35' E 000°18'5 8.7
2017-Oct-19 18:59N 50°36' E 000°25'5 9.6
2017-Oct-19 18:30N 50°37' E 000°32'610.5
2017-Oct-19 17:55N 50°40' E 000°40'511.3
2017-Oct-19 17:30N 50°43' E 000°46'611.5
2017-Oct-19 16:57N 50°47' E 000°54'1511.2
2017-Oct-19 15:38N 50°56' E 001°13'110.5
2017-Oct-19 15:30N 50°57' E 001°15'610.3
2017-Oct-19 14:58N 51°00' E 001°21'4 9.5
2017-Oct-19 14:30N 51°04' E 001°26'4 8.8
2017-Oct-19 14:00N 51°07' E 001°31'4 7.6
2017-Oct-19 13:30N 51°09' E 001°35'4 7.1
2017-Oct-19 13:00N 51°12' E 001°38'4 7.5
2017-Oct-19 12:30N 51°16' E 001°41'4 7.7
2017-Oct-19 12:00N 51°19' E 001°43'4 8.3
2017-Oct-19 11:30N 51°23' E 001°45'4 8.8
2017-Oct-19 11:00N 51°27' E 001°47'5 9.9
2017-Oct-19 10:30N 51°32' E 001°47'511.0
2017-Oct-19 10:00N 51°38' E 001°46'611.9
2017-Oct-19 09:31N 51°44' E 001°45'612.5
2017-Oct-19 09:01N 51°50' E 001°44'612.5
2017-Oct-19 08:31N 51°56' E 001°43'713.1
2017-Oct-19 08:00N 52°03' E 001°46'713.2
2017-Oct-19 07:30N 52°09' E 001°48'713.0
2017-Oct-19 06:56N 52°16' E 001°49'512.8
2017-Oct-19 06:30N 52°22' E 001°50'612.9
2017-Oct-19 06:00N 52°28' E 001°52'1112.1
2017-Oct-19 05:04N 52°40' E 001°54'111.3
2017-Oct-19 05:00N 52°40' E 001°54'710.5
2017-Oct-19 04:18N 52°47' E 001°49'410.8
2017-Oct-19 03:54N 52°50' E 001°44'710.0
2017-Oct-19 03:14N 52°54' E 001°35'5 9.5
2017-Oct-19 02:41N 52°58' E 001°30'2 9.1
2017-Oct-19 02:31N 52°60' E 001°28'6 9.1
2017-Oct-19 01:54N 53°04' E 001°24'68 9.1
2017-Oct-18 18:22N 54°03' E 000°24'410.6
2017-Oct-18 18:00N 54°06' E 000°20'511.0
2017-Oct-18 17:30N 54°10' E 000°14'611.3
2017-Oct-18 17:00N 54°15' E 000°09'611.5
2017-Oct-18 16:30N 54°20' E 000°04'611.9
2017-Oct-18 16:00N 54°25' W 000°02'611.9
2017-Oct-18 15:30N 54°30' W 000°08'612.1
2017-Oct-18 15:00N 54°35' W 000°14'3611.6
2017-Oct-18 11:54N 55°05' W 000°48'610.7
2017-Oct-18 11:21N 55°10' W 000°54'610.6
2017-Oct-18 10:50N 55°14' W 000°59'1210.3
2017-Oct-18 09:43N 55°24' W 001°10'410.1
2017-Oct-18 09:18N 55°27' W 001°14'310.0
2017-Oct-18 09:00N 55°30' W 001°17'19 9.5
2017-Oct-18 06:58N 55°46' W 001°37'5 9.8
2017-Oct-18 06:30N 55°50' W 001°41'1310.2
2017-Oct-18 05:13N 55°60' W 001°56'210.5
2017-Oct-18 05:00N 56°01' W 001°59'510.5
2017-Oct-18 04:30N 56°04' W 002°06'510.5
2017-Oct-18 04:00N 56°05' W 002°16'510.7
2017-Oct-18 03:30N 56°06' W 002°25'510.9
2017-Oct-18 03:00N 56°07' W 002°35'611.1
2017-Oct-18 02:31N 56°06' W 002°45'511.0
2017-Oct-18 02:01N 56°04' W 002°54'510.6
2017-Oct-18 01:30N 56°03' W 003°03'5 9.6
2017-Oct-18 01:00N 56°02' W 003°12'7 0.7
2017-Oct-17 15:39N 56°01' W 003°24'0 0.0
2017-Oct-17 15:30N 56°01' W 003°24'0 0.0
2017-Oct-17 15:00N 56°01' W 003°24'0 0.0
2017-Oct-17 14:30N 56°01' W 003°24'0 0.0
2017-Oct-17 14:00N 56°01' W 003°24'0 0.0
2017-Oct-17 13:30N 56°01' W 003°24'0 0.0
2017-Oct-17 13:00N 56°01' W 003°24'0 0.0
2017-Oct-17 12:30N 56°01' W 003°24'0 0.0
2017-Oct-17 12:00N 56°01' W 003°24'0 0.0
2017-Oct-17 11:30N 56°01' W 003°24'0 0.0
2017-Oct-17 11:00N 56°01' W 003°24'0 0.0
2017-Oct-17 10:30N 56°01' W 003°24'0 0.0
2017-Oct-17 10:00N 56°01' W 003°24'0 0.0
2017-Oct-17 09:30N 56°01' W 003°24'0 0.0
2017-Oct-17 09:00N 56°01' W 003°24'0 0.0
2017-Oct-17 08:30N 56°01' W 003°24'0 0.0
2017-Oct-17 08:00N 56°01' W 003°24'0 0.0
2017-Oct-17 07:30N 56°01' W 003°24'0 0.0
2017-Oct-17 07:00N 56°01' W 003°24'0 0.0
2017-Oct-17 06:30N 56°01' W 003°24'0 0.0
2017-Oct-17 06:00N 56°01' W 003°24'0 0.0
2017-Oct-17 05:30N 56°01' W 003°24'0 0.0
2017-Oct-17 05:00N 56°01' W 003°24'0 0.0
2017-Oct-17 04:30N 56°01' W 003°24'0 0.0
2017-Oct-17 04:00N 56°01' W 003°24'0 0.0
2017-Oct-17 03:15N 56°01' W 003°24'0 0.0
2017-Oct-17 03:00N 56°01' W 003°24'0 0.0
2017-Oct-17 02:30N 56°01' W 003°24'0 0.0
2017-Oct-17 02:00N 56°01' W 003°24'0 0.0
2017-Oct-17 01:30N 56°01' W 003°24'0 0.0
2017-Oct-17 01:00N 56°01' W 003°24'0 0.0
2017-Oct-17 00:30N 56°01' W 003°24'0 0.0
2017-Oct-17 00:00N 56°01' W 003°24'0 0.0
2017-Oct-16 23:30N 56°01' W 003°24'0 0.0
2017-Oct-16 23:00N 56°01' W 003°24'0 0.0
2017-Oct-16 22:30N 56°01' W 003°24'0 0.0
2017-Oct-16 22:00N 56°01' W 003°24'0 0.0
2017-Oct-16 21:30N 56°01' W 003°24'0 0.0
2017-Oct-16 21:00N 56°01' W 003°24'0 0.0
2017-Oct-16 20:30N 56°01' W 003°24'0 0.0
2017-Oct-16 20:00N 56°01' W 003°24'0 0.0
2017-Oct-16 19:30N 56°01' W 003°24'0 0.0
2017-Oct-16 19:00N 56°01' W 003°24'0 0.0
2017-Oct-16 18:30N 56°01' W 003°24'0 0.0
2017-Oct-16 18:00N 56°01' W 003°24'0 0.0
2017-Oct-16 17:30N 56°01' W 003°24'0 0.0
2017-Oct-16 17:00N 56°01' W 003°24'0 0.0
2017-Oct-16 16:30N 56°01' W 003°24'0 0.0
2017-Oct-16 16:00N 56°01' W 003°24'0 0.0
2017-Oct-16 15:30N 56°01' W 003°24'0 0.0
2017-Oct-16 15:00N 56°01' W 003°24'0 0.0
2017-Oct-16 14:00N 56°01' W 003°24'0 0.0
2017-Oct-16 13:30N 56°01' W 003°24'0 0.0
2017-Oct-16 13:00N 56°01' W 003°24'0 0.0
2017-Oct-16 12:30N 56°01' W 003°24'0 0.0
2017-Oct-16 12:00N 56°01' W 003°24'0 0.0
2017-Oct-16 11:30N 56°01' W 003°24'1 2.5
2017-Oct-16 11:00N 56°01' W 003°22'611.4
2017-Oct-16 10:30N 56°02' W 003°12'3 4.7
2017-Oct-16 09:55N 56°02' W 003°07'0 0.0
2017-Oct-16 09:28N 56°02' W 003°07'0 0.0
2017-Oct-16 08:58N 56°02' W 003°07'0 0.0
2017-Oct-16 08:28N 56°02' W 003°07'0 0.1
2017-Oct-16 07:58N 56°02' W 003°07'0 0.1
2017-Oct-16 07:28N 56°02' W 003°07'0 0.0
2017-Oct-16 06:58N 56°02' W 003°07'0 0.0
2017-Oct-16 06:28N 56°02' W 003°07'0 0.1
2017-Oct-16 05:58N 56°02' W 003°07'0 0.0
2017-Oct-16 05:28N 56°02' W 003°07'0 0.1
2017-Oct-16 04:58N 56°02' W 003°07'0 0.0
2017-Oct-16 04:28N 56°02' W 003°07'0 0.0
2017-Oct-16 03:58N 56°02' W 003°07'0 0.0
2017-Oct-16 03:28N 56°02' W 003°07'0 0.0
2017-Oct-16 02:58N 56°02' W 003°07'0 0.1
2017-Oct-16 02:28N 56°02' W 003°07'0 0.1
2017-Oct-16 01:58N 56°02' W 003°07'0 0.0
2017-Oct-16 01:28N 56°02' W 003°07'0 0.0
2017-Oct-16 00:58N 56°02' W 003°07'0 0.0
2017-Oct-16 00:28N 56°02' W 003°06'0 0.0
2017-Oct-15 23:58N 56°02' W 003°06'0 0.0
2017-Oct-15 23:28N 56°02' W 003°07'0 0.0
2017-Oct-15 22:58N 56°02' W 003°07'0 0.0
2017-Oct-15 22:28N 56°02' W 003°07'0 0.0
2017-Oct-15 21:58N 56°02' W 003°07'0 0.0
2017-Oct-15 21:28N 56°02' W 003°07'0 0.0
2017-Oct-15 20:58N 56°02' W 003°06'0 0.0
2017-Oct-15 20:28N 56°02' W 003°07'0 0.1
2017-Oct-15 19:58N 56°02' W 003°06'0 0.0
2017-Oct-15 19:28N 56°02' W 003°06'0 0.0
2017-Oct-15 18:58N 56°02' W 003°06'0 0.0
2017-Oct-15 18:28N 56°02' W 003°06'0 0.0
2017-Oct-15 17:58N 56°02' W 003°06'0 0.0
2017-Oct-15 17:28N 56°02' W 003°06'0 0.0
2017-Oct-15 16:58N 56°02' W 003°07'0 0.0
2017-Oct-15 16:28N 56°02' W 003°06'0 0.0
2017-Oct-15 15:58N 56°02' W 003°06'0 0.0
2017-Oct-15 15:28N 56°02' W 003°06'0 0.1
2017-Oct-15 14:58N 56°02' W 003°07'0 0.0
2017-Oct-15 13:58N 56°02' W 003°07'0 0.0
2017-Oct-15 13:28N 56°02' W 003°07'0 0.1
2017-Oct-15 12:55N 56°02' W 003°07'0 0.1
2017-Oct-15 12:28N 56°02' W 003°07'0 0.0
2017-Oct-15 11:58N 56°02' W 003°07'0 0.0
2017-Oct-15 11:28N 56°02' W 003°07'0 0.0
2017-Oct-15 10:58N 56°02' W 003°07'0 0.1
2017-Oct-15 10:28N 56°02' W 003°07'0 0.0
2017-Oct-15 09:58N 56°02' W 003°07'0 0.0
2017-Oct-15 09:28N 56°02' W 003°07'0 0.0
2017-Oct-15 08:58N 56°02' W 003°07'0 0.0
2017-Oct-15 08:28N 56°02' W 003°07'0 0.0
2017-Oct-15 07:58N 56°02' W 003°07'0 0.0
2017-Oct-15 07:28N 56°02' W 003°07'0 0.0
2017-Oct-15 06:58N 56°02' W 003°07'0 0.0
2017-Oct-15 06:28N 56°02' W 003°07'0 0.0
2017-Oct-15 05:58N 56°02' W 003°07'0 0.0
2017-Oct-15 05:28N 56°02' W 003°07'0 0.0
2017-Oct-15 04:58N 56°02' W 003°07'0 0.1
2017-Oct-15 04:28N 56°02' W 003°07'0 0.0
2017-Oct-15 03:58N 56°02' W 003°07'0 0.0
2017-Oct-15 03:28N 56°02' W 003°07'0 0.0
2017-Oct-15 02:58N 56°02' W 003°07'0 0.1
2017-Oct-15 02:28N 56°02' W 003°07'0 0.1
2017-Oct-15 01:58N 56°02' W 003°07'0 0.0
2017-Oct-15 01:28N 56°02' W 003°07'0 0.0
2017-Oct-15 00:58N 56°02' W 003°07'0 0.0
2017-Oct-15 00:28N 56°02' W 003°07'0 0.0
2017-Oct-14 23:58N 56°02' W 003°07'0 0.0
2017-Oct-14 23:28N 56°02' W 003°07'0 0.1
2017-Oct-14 22:58N 56°02' W 003°07'0 0.0
2017-Oct-14 22:28N 56°02' W 003°07'0 0.1
2017-Oct-14 21:58N 56°02' W 003°07'0 0.1
2017-Oct-14 21:28N 56°02' W 003°07'0 0.2
2017-Oct-14 20:58N 56°02' W 003°07'0 0.0
2017-Oct-14 20:28N 56°02' W 003°07'0 0.1
2017-Oct-14 19:58N 56°02' W 003°07'0 0.1
2017-Oct-14 19:28N 56°02' W 003°07'0 0.1
2017-Oct-14 18:58N 56°02' W 003°07'0 0.1
2017-Oct-14 18:28N 56°02' W 003°07'0 0.0
2017-Oct-14 17:58N 56°02' W 003°07'0 0.0
2017-Oct-14 17:28N 56°02' W 003°07'0 0.0
2017-Oct-14 16:58N 56°02' W 003°07'0 0.0
2017-Oct-14 16:28N 56°02' W 003°07'0 0.0
2017-Oct-14 15:58N 56°02' W 003°07'0 0.1
2017-Oct-14 15:28N 56°02' W 003°07'0 0.0
2017-Oct-14 14:58N 56°02' W 003°07'0 0.0
2017-Oct-14 14:28N 56°02' W 003°07'0 0.0
2017-Oct-14 13:58N 56°02' W 003°07'0 0.0
2017-Oct-14 13:28N 56°02' W 003°07'0 0.0
2017-Oct-14 12:58N 56°02' W 003°07'0 0.0
2017-Oct-14 12:28N 56°02' W 003°07'0 0.0
2017-Oct-14 11:58N 56°02' W 003°07'0 0.0
2017-Oct-14 11:28N 56°02' W 003°07'0 0.0
2017-Oct-14 10:58N 56°02' W 003°07'2 4.5
2017-Oct-14 10:30N 56°03' W 003°03'510.8
2017-Oct-14 10:00N 56°05' W 002°54'510.7
2017-Oct-14 09:30N 56°06' W 002°45'611.0
2017-Oct-14 09:00N 56°07' W 002°35'611.4
2017-Oct-14 08:30N 56°07' W 002°25'611.3
2017-Oct-14 08:00N 56°06' W 002°15'511.0
2017-Oct-14 07:30N 56°05' W 002°05'611.5
2017-Oct-14 07:00N 56°01' W 001°58'611.7
2017-Oct-14 06:30N 55°56' W 001°51'611.7
2017-Oct-14 06:00N 55°52' W 001°44'611.8
2017-Oct-14 05:30N 55°47' W 001°39'912.1
2017-Oct-14 04:46N 55°39' W 001°31'312.2
2017-Oct-14 04:30N 55°36' W 001°28'612.1
2017-Oct-14 04:00N 55°31' W 001°23'611.8
2017-Oct-14 03:30N 55°26' W 001°18'611.7
2017-Oct-14 03:00N 55°21' W 001°13'611.7
2017-Oct-14 02:30N 55°16' W 001°08'611.7
2017-Oct-14 02:00N 55°11' W 001°03'1411.6
2017-Oct-14 00:49N 54°59' W 000°51'411.1
2017-Oct-14 00:27N 54°55' W 000°48'2310.7
2017-Oct-13 22:19N 54°35' W 000°28'310.2
2017-Oct-13 22:00N 54°33' W 000°25'510.2
2017-Oct-13 21:30N 54°28' W 000°21'510.2
2017-Oct-13 21:00N 54°24' W 000°16'510.5
2017-Oct-13 20:30N 54°20' W 000°11'510.6
2017-Oct-13 20:00N 54°15' W 000°06'510.8
2017-Oct-13 19:30N 54°10' W 000°02'611.2
2017-Oct-13 19:00N 54°05' E 000°02'611.5
2017-Oct-13 18:30N 53°60' E 000°06'24 1.3
2017-Oct-12 23:09N 53°36' W 000°04'210.2
2017-Oct-12 23:00N 53°37' W 000°06'611.3
2017-Oct-12 22:31N 53°41' W 000°13'5 9.5
2017-Oct-12 22:00N 53°43' W 000°20'1 2.8
2017-Oct-12 21:30N 53°43' W 000°22'0 0.0
2017-Oct-12 21:00N 53°43' W 000°22'0 0.0
2017-Oct-12 20:30N 53°43' W 000°22'0 0.0
2017-Oct-12 20:00N 53°43' W 000°22'0 0.0
2017-Oct-12 19:30N 53°43' W 000°22'0 0.0
2017-Oct-12 19:00N 53°43' W 000°22'0 0.0
2017-Oct-12 18:30N 53°43' W 000°22'0 0.0
2017-Oct-12 18:00N 53°43' W 000°22'0 0.0
2017-Oct-12 17:30N 53°43' W 000°22'0 0.0
2017-Oct-12 17:00N 53°43' W 000°22'0 0.0
2017-Oct-12 16:30N 53°43' W 000°22'0 0.0
2017-Oct-12 16:00N 53°43' W 000°22'0 0.0
2017-Oct-12 15:30N 53°43' W 000°22'0 0.0
2017-Oct-12 15:00N 53°43' W 000°22'0 0.0
2017-Oct-12 14:30N 53°43' W 000°22'0 0.0
2017-Oct-12 14:00N 53°43' W 000°22'0 0.0
2017-Oct-12 13:30N 53°43' W 000°22'0 0.0
2017-Oct-12 13:00N 53°43' W 000°22'0 0.0
2017-Oct-12 12:30N 53°43' W 000°22'0 0.0
2017-Oct-12 11:54N 53°43' W 000°22'0 0.0
2017-Oct-12 11:30N 53°43' W 000°22'0 0.0
2017-Oct-12 11:00N 53°43' W 000°22'0 0.0
2017-Oct-12 10:30N 53°43' W 000°22'0 0.0
2017-Oct-12 10:00N 53°43' W 000°22'0 0.0
2017-Oct-12 09:30N 53°43' W 000°22'0 0.0
2017-Oct-12 09:00N 53°43' W 000°22'0 0.0
2017-Oct-12 08:30N 53°43' W 000°22'0 0.0
2017-Oct-12 08:00N 53°43' W 000°22'0 0.0
2017-Oct-12 07:30N 53°43' W 000°22'0 0.0
2017-Oct-12 07:00N 53°43' W 000°22'0 0.0
2017-Oct-12 06:30N 53°43' W 000°22'0 0.0
2017-Oct-12 06:00N 53°43' W 000°22'0 0.0
2017-Oct-12 05:30N 53°43' W 000°22'0 0.0
2017-Oct-12 05:00N 53°43' W 000°22'0 0.0
2017-Oct-12 04:27N 53°43' W 000°22'0 0.0
2017-Oct-12 04:00N 53°43' W 000°22'0 0.0
2017-Oct-12 03:30N 53°43' W 000°22'0 0.0
2017-Oct-12 03:00N 53°43' W 000°22'0 0.0
2017-Oct-12 02:30N 53°43' W 000°22'0 0.0
2017-Oct-12 02:00N 53°43' W 000°22'0 0.0
2017-Oct-12 01:30N 53°43' W 000°22'0 0.0
2017-Oct-12 01:00N 53°43' W 000°22'0 0.0
2017-Oct-12 00:30N 53°43' W 000°22'0 0.0
2017-Oct-12 00:00N 53°43' W 000°22'0 0.0
2017-Oct-11 23:30N 53°43' W 000°22'0 0.0
2017-Oct-11 23:00N 53°43' W 000°22'0 0.0
2017-Oct-11 22:30N 53°43' W 000°22'0 0.0
2017-Oct-11 22:00N 53°43' W 000°22'0 0.0
2017-Oct-11 21:30N 53°43' W 000°22'0 0.0
2017-Oct-11 21:00N 53°43' W 000°22'0 0.0
2017-Oct-11 20:30N 53°43' W 000°22'0 0.0
2017-Oct-11 19:54N 53°43' W 000°22'0 0.0
2017-Oct-11 19:27N 53°43' W 000°22'0 0.0
2017-Oct-11 19:00N 53°43' W 000°22'0 0.0
2017-Oct-11 18:27N 53°43' W 000°22'0 0.0
2017-Oct-11 17:57N 53°43' W 000°22'0 0.0
2017-Oct-11 17:30N 53°43' W 000°22'0 0.0
2017-Oct-11 17:00N 53°43' W 000°22'63 3.1
2017-Oct-10 20:40N 53°13' E 001°12'6 9.1
2017-Oct-10 19:59N 53°08' E 001°19'6 9.9
2017-Oct-10 19:25N 53°04' E 001°24'1511.5
2017-Oct-10 18:06N 52°52' E 001°40'813.0
2017-Oct-10 17:29N 52°46' E 001°49'713.6
2017-Oct-10 17:01N 52°41' E 001°54'  
Track history (hours):
 
Tides and Currents Weather Stations Pressure Air Temp Water Temp Dewpoint Dewpoint Depression Visibility Wind Speed Wind Dir Waves Ship Positions

Arklow Fame

Last reported at 2017-Oct-20 16:25 UTC. Time now 2017-Oct-23 02:46 UTC.
Position N 49°46' W 003°28'.

Length 90 m; draft 5.2 m.

Type: Cargo ship. MMSI: 250000817.

Date/timePositionNaut miles runAvg speedWind from/ knotsBaromVisibWave heightAir tempDewpointWater temp
2017-Oct-20 16:25N 49°46' W 003°28'4 8.3
2017-Oct-20 15:59N 49°48' W 003°23'4 8.8
2017-Oct-20 15:30N 49°50' W 003°18'5 9.6
2017-Oct-20 15:00N 49°53' W 003°11'510.6
2017-Oct-20 14:30N 49°55' W 003°04'108 7.1
2017-Oct-19 23:28N 50°27' W 000°24'4 8.1
2017-Oct-19 23:00N 50°29' W 000°19'4 7.2
2017-Oct-19 22:30N 50°30' W 000°13'3 6.6
2017-Oct-19 22:00N 50°31' W 000°08'3 6.5
2017-Oct-19 21:30N 50°31' W 000°03'3 6.3
2017-Oct-19 20:58N 50°32' E 000°02'3 6.6
2017-Oct-19 20:30N 50°33' E 000°07'4 7.1
2017-Oct-19 20:00N 50°34' E 000°12'4 7.9
2017-Oct-19 19:30N 50°35' E 000°18'5 8.7
2017-Oct-19 18:59N 50°36' E 000°25'5 9.6
2017-Oct-19 18:30N 50°37' E 000°32'610.5
2017-Oct-19 17:55N 50°40' E 000°40'511.3
2017-Oct-19 17:30N 50°43' E 000°46'611.5
2017-Oct-19 16:57N 50°47' E 000°54'1511.2
2017-Oct-19 15:38N 50°56' E 001°13'110.5
2017-Oct-19 15:30N 50°57' E 001°15'610.3
2017-Oct-19 14:58N 51°00' E 001°21'4 9.5
2017-Oct-19 14:30N 51°04' E 001°26'4 8.8
2017-Oct-19 14:00N 51°07' E 001°31'4 7.6
2017-Oct-19 13:30N 51°09' E 001°35'4 7.1
2017-Oct-19 13:00N 51°12' E 001°38'4 7.5
2017-Oct-19 12:30N 51°16' E 001°41'4 7.7
2017-Oct-19 12:00N 51°19' E 001°43'4 8.3
2017-Oct-19 11:30N 51°23' E 001°45'4 8.8
2017-Oct-19 11:00N 51°27' E 001°47'5 9.9
2017-Oct-19 10:30N 51°32' E 001°47'511.0
2017-Oct-19 10:00N 51°38' E 001°46'611.9
2017-Oct-19 09:31N 51°44' E 001°45'612.5
2017-Oct-19 09:01N 51°50' E 001°44'612.5
2017-Oct-19 08:31N 51°56' E 001°43'713.1
2017-Oct-19 08:00N 52°03' E 001°46'713.2
2017-Oct-19 07:30N 52°09' E 001°48'713.0
2017-Oct-19 06:56N 52°16' E 001°49'512.8
2017-Oct-19 06:30N 52°22' E 001°50'612.9
2017-Oct-19 06:00N 52°28' E 001°52'1112.1
2017-Oct-19 05:04N 52°40' E 001°54'111.3
2017-Oct-19 05:00N 52°40' E 001°54'710.5
2017-Oct-19 04:18N 52°47' E 001°49'410.8
2017-Oct-19 03:54N 52°50' E 001°44'710.0
2017-Oct-19 03:14N 52°54' E 001°35'5 9.5
2017-Oct-19 02:41N 52°58' E 001°30'2 9.1
2017-Oct-19 02:31N 52°60' E 001°28'6 9.1
2017-Oct-19 01:54N 53°04' E 001°24'68 9.1
2017-Oct-18 18:22N 54°03' E 000°24'410.6
2017-Oct-18 18:00N 54°06' E 000°20'511.0
2017-Oct-18 17:30N 54°10' E 000°14'611.3
2017-Oct-18 17:00N 54°15' E 000°09'611.5
2017-Oct-18 16:30N 54°20' E 000°04'611.9
2017-Oct-18 16:00N 54°25' W 000°02'611.9
2017-Oct-18 15:30N 54°30' W 000°08'612.1
2017-Oct-18 15:00N 54°35' W 000°14'3611.6
2017-Oct-18 11:54N 55°05' W 000°48'610.7
2017-Oct-18 11:21N 55°10' W 000°54'610.6
2017-Oct-18 10:50N 55°14' W 000°59'1210.3
2017-Oct-18 09:43N 55°24' W 001°10'410.1
2017-Oct-18 09:18N 55°27' W 001°14'310.0
2017-Oct-18 09:00N 55°30' W 001°17'19 9.5
2017-Oct-18 06:58N 55°46' W 001°37'5 9.8
2017-Oct-18 06:30N 55°50' W 001°41'1310.2
2017-Oct-18 05:13N 55°60' W 001°56'210.5
2017-Oct-18 05:00N 56°01' W 001°59'510.5
2017-Oct-18 04:30N 56°04' W 002°06'510.5
2017-Oct-18 04:00N 56°05' W 002°16'510.7
2017-Oct-18 03:30N 56°06' W 002°25'510.9
2017-Oct-18 03:00N 56°07' W 002°35'611.1
2017-Oct-18 02:31N 56°06' W 002°45'511.0
2017-Oct-18 02:01N 56°04' W 002°54'510.6
2017-Oct-18 01:30N 56°03' W 003°03'5 9.6
2017-Oct-18 01:00N 56°02' W 003°12'7 0.7
2017-Oct-17 15:39N 56°01' W 003°24'0 0.0
2017-Oct-17 15:30N 56°01' W 003°24'0 0.0
2017-Oct-17 15:00N 56°01' W 003°24'0 0.0
2017-Oct-17 14:30N 56°01' W 003°24'0 0.0
2017-Oct-17 14:00N 56°01' W 003°24'0 0.0
2017-Oct-17 13:30N 56°01' W 003°24'0 0.0
2017-Oct-17 13:00N 56°01' W 003°24'0 0.0
2017-Oct-17 12:30N 56°01' W 003°24'0 0.0
2017-Oct-17 12:00N 56°01' W 003°24'0 0.0
2017-Oct-17 11:30N 56°01' W 003°24'0 0.0
2017-Oct-17 11:00N 56°01' W 003°24'0 0.0
2017-Oct-17 10:30N 56°01' W 003°24'0 0.0
2017-Oct-17 10:00N 56°01' W 003°24'0 0.0
2017-Oct-17 09:30N 56°01' W 003°24'0 0.0
2017-Oct-17 09:00N 56°01' W 003°24'0 0.0
2017-Oct-17 08:30N 56°01' W 003°24'0 0.0
2017-Oct-17 08:00N 56°01' W 003°24'0 0.0
2017-Oct-17 07:30N 56°01' W 003°24'0 0.0
2017-Oct-17 07:00N 56°01' W 003°24'0 0.0
2017-Oct-17 06:30N 56°01' W 003°24'0 0.0
2017-Oct-17 06:00N 56°01' W 003°24'0 0.0
2017-Oct-17 05:30N 56°01' W 003°24'0 0.0
2017-Oct-17 05:00N 56°01' W 003°24'0 0.0
2017-Oct-17 04:30N 56°01' W 003°24'0 0.0
2017-Oct-17 04:00N 56°01' W 003°24'0 0.0
2017-Oct-17 03:15N 56°01' W 003°24'0 0.0
2017-Oct-17 03:00N 56°01' W 003°24'0 0.0
2017-Oct-17 02:30N 56°01' W 003°24'0 0.0
2017-Oct-17 02:00N 56°01' W 003°24'0 0.0
2017-Oct-17 01:30N 56°01' W 003°24'0 0.0
2017-Oct-17 01:00N 56°01' W 003°24'0 0.0
2017-Oct-17 00:30N 56°01' W 003°24'0 0.0
2017-Oct-17 00:00N 56°01' W 003°24'0 0.0
2017-Oct-16 23:30N 56°01' W 003°24'0 0.0
2017-Oct-16 23:00N 56°01' W 003°24'0 0.0
2017-Oct-16 22:30N 56°01' W 003°24'0 0.0
2017-Oct-16 22:00N 56°01' W 003°24'0 0.0
2017-Oct-16 21:30N 56°01' W 003°24'0 0.0
2017-Oct-16 21:00N 56°01' W 003°24'0 0.0
2017-Oct-16 20:30N 56°01' W 003°24'0 0.0
2017-Oct-16 20:00N 56°01' W 003°24'0 0.0
2017-Oct-16 19:30N 56°01' W 003°24'0 0.0
2017-Oct-16 19:00N 56°01' W 003°24'0 0.0
2017-Oct-16 18:30N 56°01' W 003°24'0 0.0
2017-Oct-16 18:00N 56°01' W 003°24'0 0.0
2017-Oct-16 17:30N 56°01' W 003°24'0 0.0
2017-Oct-16 17:00N 56°01' W 003°24'0 0.0
2017-Oct-16 16:30N 56°01' W 003°24'0 0.0
2017-Oct-16 16:00N 56°01' W 003°24'0 0.0
2017-Oct-16 15:30N 56°01' W 003°24'0 0.0
2017-Oct-16 15:00N 56°01' W 003°24'0 0.0
2017-Oct-16 14:00N 56°01' W 003°24'0 0.0
2017-Oct-16 13:30N 56°01' W 003°24'0 0.0
2017-Oct-16 13:00N 56°01' W 003°24'0 0.0
2017-Oct-16 12:30N 56°01' W 003°24'0 0.0
2017-Oct-16 12:00N 56°01' W 003°24'0 0.0
2017-Oct-16 11:30N 56°01' W 003°24'1 2.5
2017-Oct-16 11:00N 56°01' W 003°22'611.4
2017-Oct-16 10:30N 56°02' W 003°12'3 4.7
2017-Oct-16 09:55N 56°02' W 003°07'0 0.0
2017-Oct-16 09:28N 56°02' W 003°07'0 0.0
2017-Oct-16 08:58N 56°02' W 003°07'0 0.0
2017-Oct-16 08:28N 56°02' W 003°07'0 0.1
2017-Oct-16 07:58N 56°02' W 003°07'0 0.1
2017-Oct-16 07:28N 56°02' W 003°07'0 0.0
2017-Oct-16 06:58N 56°02' W 003°07'0 0.0
2017-Oct-16 06:28N 56°02' W 003°07'0 0.1
2017-Oct-16 05:58N 56°02' W 003°07'0 0.0
2017-Oct-16 05:28N 56°02' W 003°07'0 0.1
2017-Oct-16 04:58N 56°02' W 003°07'0 0.0
2017-Oct-16 04:28N 56°02' W 003°07'0 0.0
2017-Oct-16 03:58N 56°02' W 003°07'0 0.0
2017-Oct-16 03:28N 56°02' W 003°07'0 0.0
2017-Oct-16 02:58N 56°02' W 003°07'0 0.1
2017-Oct-16 02:28N 56°02' W 003°07'0 0.1
2017-Oct-16 01:58N 56°02' W 003°07'0 0.0
2017-Oct-16 01:28N 56°02' W 003°07'0 0.0
2017-Oct-16 00:58N 56°02' W 003°07'0 0.0
2017-Oct-16 00:28N 56°02' W 003°06'0 0.0
2017-Oct-15 23:58N 56°02' W 003°06'0 0.0
2017-Oct-15 23:28N 56°02' W 003°07'0 0.0
2017-Oct-15 22:58N 56°02' W 003°07'0 0.0
2017-Oct-15 22:28N 56°02' W 003°07'0 0.0
2017-Oct-15 21:58N 56°02' W 003°07'0 0.0
2017-Oct-15 21:28N 56°02' W 003°07'0 0.0
2017-Oct-15 20:58N 56°02' W 003°06'0 0.0
2017-Oct-15 20:28N 56°02' W 003°07'0 0.1
2017-Oct-15 19:58N 56°02' W 003°06'0 0.0
2017-Oct-15 19:28N 56°02' W 003°06'0 0.0
2017-Oct-15 18:58N 56°02' W 003°06'0 0.0
2017-Oct-15 18:28N 56°02' W 003°06'0 0.0
2017-Oct-15 17:58N 56°02' W 003°06'0 0.0
2017-Oct-15 17:28N 56°02' W 003°06'0 0.0
2017-Oct-15 16:58N 56°02' W 003°07'0 0.0
2017-Oct-15 16:28N 56°02' W 003°06'0 0.0
2017-Oct-15 15:58N 56°02' W 003°06'0 0.0
2017-Oct-15 15:28N 56°02' W 003°06'0 0.1
2017-Oct-15 14:58N 56°02' W 003°07'0 0.0
2017-Oct-15 13:58N 56°02' W 003°07'0 0.0
2017-Oct-15 13:28N 56°02' W 003°07'0 0.1
2017-Oct-15 12:55N 56°02' W 003°07'0 0.1
2017-Oct-15 12:28N 56°02' W 003°07'0 0.0
2017-Oct-15 11:58N 56°02' W 003°07'0 0.0
2017-Oct-15 11:28N 56°02' W 003°07'0 0.0
2017-Oct-15 10:58N 56°02' W 003°07'0 0.1
2017-Oct-15 10:28N 56°02' W 003°07'0 0.0
2017-Oct-15 09:58N 56°02' W 003°07'0 0.0
2017-Oct-15 09:28N 56°02' W 003°07'0 0.0
2017-Oct-15 08:58N 56°02' W 003°07'0 0.0
2017-Oct-15 08:28N 56°02' W 003°07'0 0.0
2017-Oct-15 07:58N 56°02' W 003°07'0 0.0
2017-Oct-15 07:28N 56°02' W 003°07'0 0.0
2017-Oct-15 06:58N 56°02' W 003°07'0 0.0
2017-Oct-15 06:28N 56°02' W 003°07'0 0.0
2017-Oct-15 05:58N 56°02' W 003°07'0 0.0
2017-Oct-15 05:28N 56°02' W 003°07'0 0.0
2017-Oct-15 04:58N 56°02' W 003°07'0 0.1
2017-Oct-15 04:28N 56°02' W 003°07'0 0.0
2017-Oct-15 03:58N 56°02' W 003°07'0 0.0
2017-Oct-15 03:28N 56°02' W 003°07'0 0.0
2017-Oct-15 02:58N 56°02' W 003°07'0 0.1
2017-Oct-15 02:28N 56°02' W 003°07'0 0.1
2017-Oct-15 01:58N 56°02' W 003°07'0 0.0
2017-Oct-15 01:28N 56°02' W 003°07'0 0.0
2017-Oct-15 00:58N 56°02' W 003°07'0 0.0
2017-Oct-15 00:28N 56°02' W 003°07'0 0.0
2017-Oct-14 23:58N 56°02' W 003°07'0 0.0
2017-Oct-14 23:28N 56°02' W 003°07'0 0.1
2017-Oct-14 22:58N 56°02' W 003°07'0 0.0
2017-Oct-14 22:28N 56°02' W 003°07'0 0.1
2017-Oct-14 21:58N 56°02' W 003°07'0 0.1
2017-Oct-14 21:28N 56°02' W 003°07'0 0.2
2017-Oct-14 20:58N 56°02' W 003°07'0 0.0
2017-Oct-14 20:28N 56°02' W 003°07'0 0.1
2017-Oct-14 19:58N 56°02' W 003°07'0 0.1
2017-Oct-14 19:28N 56°02' W 003°07'0 0.1
2017-Oct-14 18:58N 56°02' W 003°07'0 0.1
2017-Oct-14 18:28N 56°02' W 003°07'0 0.0
2017-Oct-14 17:58N 56°02' W 003°07'0 0.0
2017-Oct-14 17:28N 56°02' W 003°07'0 0.0
2017-Oct-14 16:58N 56°02' W 003°07'0 0.0
2017-Oct-14 16:28N 56°02' W 003°07'0 0.0
2017-Oct-14 15:58N 56°02' W 003°07'0 0.1
2017-Oct-14 15:28N 56°02' W 003°07'0 0.0
2017-Oct-14 14:58N 56°02' W 003°07'0 0.0
2017-Oct-14 14:28N 56°02' W 003°07'0 0.0
2017-Oct-14 13:58N 56°02' W 003°07'0 0.0
2017-Oct-14 13:28N 56°02' W 003°07'0 0.0
2017-Oct-14 12:58N 56°02' W 003°07'0 0.0
2017-Oct-14 12:28N 56°02' W 003°07'0 0.0
2017-Oct-14 11:58N 56°02' W 003°07'0 0.0
2017-Oct-14 11:28N 56°02' W 003°07'0 0.0
2017-Oct-14 10:58N 56°02' W 003°07'2 4.5
2017-Oct-14 10:30N 56°03' W 003°03'510.8
2017-Oct-14 10:00N 56°05' W 002°54'510.7
2017-Oct-14 09:30N 56°06' W 002°45'611.0
2017-Oct-14 09:00N 56°07' W 002°35'611.4
2017-Oct-14 08:30N 56°07' W 002°25'611.3
2017-Oct-14 08:00N 56°06' W 002°15'511.0
2017-Oct-14 07:30N 56°05' W 002°05'611.5
2017-Oct-14 07:00N 56°01' W 001°58'611.7
2017-Oct-14 06:30N 55°56' W 001°51'611.7
2017-Oct-14 06:00N 55°52' W 001°44'611.8
2017-Oct-14 05:30N 55°47' W 001°39'912.1
2017-Oct-14 04:46N 55°39' W 001°31'312.2
2017-Oct-14 04:30N 55°36' W 001°28'612.1
2017-Oct-14 04:00N 55°31' W 001°23'611.8
2017-Oct-14 03:30N 55°26' W 001°18'611.7
2017-Oct-14 03:00N 55°21' W 001°13'611.7
2017-Oct-14 02:30N 55°16' W 001°08'611.7
2017-Oct-14 02:00N 55°11' W 001°03'1411.6
2017-Oct-14 00:49N 54°59' W 000°51'411.1
2017-Oct-14 00:27N 54°55' W 000°48'2310.7
2017-Oct-13 22:19N 54°35' W 000°28'310.2
2017-Oct-13 22:00N 54°33' W 000°25'510.2
2017-Oct-13 21:30N 54°28' W 000°21'510.2
2017-Oct-13 21:00N 54°24' W 000°16'510.5
2017-Oct-13 20:30N 54°20' W 000°11'510.6
2017-Oct-13 20:00N 54°15' W 000°06'510.8
2017-Oct-13 19:30N 54°10' W 000°02'611.2
2017-Oct-13 19:00N 54°05' E 000°02'611.5
2017-Oct-13 18:30N 53°60' E 000°06'24 1.3
2017-Oct-12 23:09N 53°36' W 000°04'210.2
2017-Oct-12 23:00N 53°37' W 000°06'611.3
2017-Oct-12 22:31N 53°41' W 000°13'5 9.5
2017-Oct-12 22:00N 53°43' W 000°20'1 2.8
2017-Oct-12 21:30N 53°43' W 000°22'0 0.0
2017-Oct-12 21:00N 53°43' W 000°22'0 0.0
2017-Oct-12 20:30N 53°43' W 000°22'0 0.0
2017-Oct-12 20:00N 53°43' W 000°22'0 0.0
2017-Oct-12 19:30N 53°43' W 000°22'0 0.0
2017-Oct-12 19:00N 53°43' W 000°22'0 0.0
2017-Oct-12 18:30N 53°43' W 000°22'0 0.0
2017-Oct-12 18:00N 53°43' W 000°22'0 0.0
2017-Oct-12 17:30N 53°43' W 000°22'0 0.0
2017-Oct-12 17:00N 53°43' W 000°22'0 0.0
2017-Oct-12 16:30N 53°43' W 000°22'0 0.0
2017-Oct-12 16:00N 53°43' W 000°22'0 0.0
2017-Oct-12 15:30N 53°43' W 000°22'0 0.0
2017-Oct-12 15:00N 53°43' W 000°22'0 0.0
2017-Oct-12 14:30N 53°43' W 000°22'0 0.0
2017-Oct-12 14:00N 53°43' W 000°22'0 0.0
2017-Oct-12 13:30N 53°43' W 000°22'0 0.0
2017-Oct-12 13:00N 53°43' W 000°22'0 0.0
2017-Oct-12 12:30N 53°43' W 000°22'0 0.0
2017-Oct-12 11:54N 53°43' W 000°22'0 0.0
2017-Oct-12 11:30N 53°43' W 000°22'0 0.0
2017-Oct-12 11:00N 53°43' W 000°22'0 0.0
2017-Oct-12 10:30N 53°43' W 000°22'0 0.0
2017-Oct-12 10:00N 53°43' W 000°22'0 0.0
2017-Oct-12 09:30N 53°43' W 000°22'0 0.0
2017-Oct-12 09:00N 53°43' W 000°22'0 0.0
2017-Oct-12 08:30N 53°43' W 000°22'0 0.0
2017-Oct-12 08:00N 53°43' W 000°22'0 0.0
2017-Oct-12 07:30N 53°43' W 000°22'0 0.0
2017-Oct-12 07:00N 53°43' W 000°22'0 0.0
2017-Oct-12 06:30N 53°43' W 000°22'0 0.0
2017-Oct-12 06:00N 53°43' W 000°22'0 0.0
2017-Oct-12 05:30N 53°43' W 000°22'0 0.0
2017-Oct-12 05:00N 53°43' W 000°22'0 0.0
2017-Oct-12 04:27N 53°43' W 000°22'0 0.0
2017-Oct-12 04:00N 53°43' W 000°22'0 0.0
2017-Oct-12 03:30N 53°43' W 000°22'0 0.0
2017-Oct-12 03:00N 53°43' W 000°22'0 0.0
2017-Oct-12 02:30N 53°43' W 000°22'0 0.0
2017-Oct-12 02:00N 53°43' W 000°22'0 0.0
2017-Oct-12 01:30N 53°43' W 000°22'0 0.0
2017-Oct-12 01:00N 53°43' W 000°22'0 0.0
2017-Oct-12 00:30N 53°43' W 000°22'0 0.0
2017-Oct-12 00:00N 53°43' W 000°22'0 0.0
2017-Oct-11 23:30N 53°43' W 000°22'0 0.0
2017-Oct-11 23:00N 53°43' W 000°22'0 0.0
2017-Oct-11 22:30N 53°43' W 000°22'0 0.0
2017-Oct-11 22:00N 53°43' W 000°22'0 0.0
2017-Oct-11 21:30N 53°43' W 000°22'0 0.0
2017-Oct-11 21:00N 53°43' W 000°22'0 0.0
2017-Oct-11 20:30N 53°43' W 000°22'0 0.0
2017-Oct-11 19:54N 53°43' W 000°22'0 0.0
2017-Oct-11 19:27N 53°43' W 000°22'0 0.0
2017-Oct-11 19:00N 53°43' W 000°22'0 0.0
2017-Oct-11 18:27N 53°43' W 000°22'0 0.0
2017-Oct-11 17:57N 53°43' W 000°22'0 0.0
2017-Oct-11 17:30N 53°43' W 000°22'0 0.0
2017-Oct-11 17:00N 53°43' W 000°22'63 3.1
2017-Oct-10 20:40N 53°13' E 001°12'6 9.1
2017-Oct-10 19:59N 53°08' E 001°19'6 9.9
2017-Oct-10 19:25N 53°04' E 001°24'1511.5
2017-Oct-10 18:06N 52°52' E 001°40'813.0
2017-Oct-10 17:29N 52°46' E 001°49'713.6
2017-Oct-10 17:01N 52°41' E 001°54'  

Dump ship's entire track history